Main page
METAR-TAF:

METAR-TAF

Airports :

Santiago de Compostela, Spain

Santiago de Compostela Airport

latitude: 42-54N, longitude: 008-26W, elevation: 370 m

Current weather observation

The report was made 23 minutes ago, at 16:30 UTC
Wind 6 kt from the North/Northwest, varying between West/Northwest and Northeast
Temperature 21°C
Humidity 53%
Pressure 1020 hPa
Visibility 10 km or more
Scattered clouds at a height of 4000 ft

METAR: LEST 221630Z 33006KT 300V040 9999 SCT040 21/11 Q1020 NOSIG

Time: 18:53 (16:53 UTC)

Forecast

The report was made 5 hours and 53 minutes ago, at 11:00 UTC
Forecast valid from 22 at 12 UTC to 23 at 12 UTC
Wind 9 kt from the West
Visibility: 7000 m
Scattered clouds at a height of 1000 ft
Broken clouds at a height of 2000 ft
Temporary
from 22 at 15 UTC to 22 at 20 UTC
Wind 10 kt from the North

TAF: LEST 221100Z 2212/2312 28009KT 7000 SCT010 BKN020 TX24/2214Z TN12/2305Z TEMPO 2215/2220 35010KT

Weather observations and forecasts of more than 4000 airports (METAR and TAF reports).

The available stations are represented by yellow and red dots on the map.

Hover mouse over dot to see the name of the station.

Then click to see weather observations and forecasts.

To change the map : click on the green buttons with a black cross to zoom in, on the green button with a dash to zoom out, or on the green arrows for adjacent maps.


METAR-TAF: